KLWT

Lewistown Municipal Airport

Lewistown, Montana, USA
METAR KLWT 250454Z AUTO 21004KT 10SM CLR 14/08 A2996 RMK AO2 SLP117 T01390083
Observed Flight Rules
May-25 @ 04:54 UTC (29 minutes ago) Visual Flight Rules
Wind Visibility Clouds
210° at 4 knots 10 miles
  • Clear skies
Temperatures Readings
Current 14°C / 57°F
Dewpoint 8°C / 46°F
Humidity 67%
Altimeter 29.96" Hg
Pressure 1011.7 hPa
Elevation 1270
METAR KLWT 250454Z AUTO 21004KT 10SM CLR 14/08 A2996 RMK AO2 SLP117 T01390083
Observed Flight Rules
May-25 @ 04:54 UTC
(29 minutes ago)
VFR
Wind Visibility
210° at 4 knots 10 miles
Clouds
  • Clear skies
Temperature Dewpoint
14°C / 57°F 8°C / 46°F
Humidity Altimeter Pressure
67% 29.96" Hg 1011.7 hPa